Wickliffe, Kentucky
Current Conditions -  °F | °C
As of 5:35 PM on Thursday 18 Dec 2014 (Local Time) from KCIR Reporting Station
Overcast Overcast  
Wind Chill: 34°   Ceiling: 1100
Heat Index: 38°   Visibility: 7mi
Dew Point: 34°   Wind: 5mph
Humidity: 86%   Direction: 50°NE
Pressure: 30.24"   Gusts: NA
Location:  36.96°N, 89.09°W
Report Text: KCIR 182335Z AUTO 05004KT 7SM BKN011 OVC031 03/01 A3024 RMK AO2 T00320010
Loading
Personal Weather Stations






























Interactive Weather Map New forecast layout! Learn more

10-Day Weather Forecast

Advertisements
Track Severe Weather on mobile